Time;durP1;ratioP1;P1;durP2;ratioP2;P2;SDS_P1;SDS_P2;PMS_P1;PMS_P2;Temp;Humidity;BMP_temperature;BMP_pressure;BME280_temperature;BME280_humidity;BME280_pressure;Samples;Min_cycle;Max_cycle;Signal;HPM_P1;HPM_P2
2023/11/18 00:00:12;;;;;;;21.42;14.77;;;4.10;99.90;;;;;;4978395;28;20519;-81
2023/11/18 00:02:38;;;;;;;21.02;14.15;;;4.20;99.90;;;;;;4979319;28;20084;-78
2023/11/18 00:05:04;;;;;;;22.60;15.93;;;4.10;99.90;;;;;;4992372;28;20078;-78
2023/11/18 00:07:32;;;;;;;25.85;14.95;;;4.20;99.90;;;;;;5000958;28;20103;-78
2023/11/18 00:09:57;;;;;;;23.50;15.65;;;4.10;99.90;;;;;;5013283;28;20049;-78
2023/11/18 00:12:24;;;;;;;21.88;15.20;;;4.10;99.90;;;;;;5014449;28;20053;-78
2023/11/18 00:14:50;;;;;;;21.83;14.73;;;4.10;99.90;;;;;;5013541;28;20497;-78
2023/11/18 00:17:15;;;;;;;25.67;15.50;;;4.00;99.90;;;;;;5014091;28;20100;-78
2023/11/18 00:19:50;;;;;;;20.17;14.60;;;4.10;99.90;;;;;;4996915;28;20050;-77
2023/11/18 00:22:16;;;;;;;25.25;15.77;;;4.10;99.90;;;;;;5012363;28;20053;-78
2023/11/18 00:24:41;;;;;;;22.00;15.05;;;4.00;99.90;;;;;;5012789;28;20046;-78
2023/11/18 00:27:07;;;;;;;25.05;15.05;;;4.00;99.90;;;;;;4997191;28;20133;-79
2023/11/18 00:29:33;;;;;;;24.92;15.43;;;3.90;99.90;;;;;;5013067;28;20493;-78
2023/11/18 00:32:02;;;;;;;24.23;15.32;;;3.90;99.90;;;;;;5013666;28;20103;-79
2023/11/18 00:34:29;;;;;;;23.35;14.88;;;4.00;99.90;;;;;;4997091;28;20421;-78
2023/11/18 00:36:57;;;;;;;22.15;14.23;;;4.00;99.90;;;;;;4997258;28;20038;-79
2023/11/18 00:39:23;;;;;;;22.00;14.95;;;3.90;99.90;;;;;;5012699;28;20121;-78
2023/11/18 00:41:49;;;;;;;23.77;16.55;;;4.00;99.90;;;;;;4996457;28;20038;-77
2023/11/18 00:44:14;;;;;;;29.35;16.88;;;4.00;99.90;;;;;;5012437;28;20037;-78
2023/11/18 00:46:40;;;;;;;25.23;16.02;;;4.00;99.90;;;;;;5012929;28;20107;-78
2023/11/18 00:49:05;;;;;;;29.55;16.27;;;4.00;99.90;;;;;;5012599;28;20050;-79
2023/11/18 00:51:31;;;;;;;30.27;16.83;;;4.00;99.90;;;;;;5013363;28;20417;-78
2023/11/18 00:53:57;;;;;;;26.38;17.13;;;3.90;99.90;;;;;;5011637;28;20056;-78
2023/11/18 00:56:22;;;;;;;27.27;16.27;;;3.90;99.90;;;;;;5011640;28;20449;-78
2023/11/18 00:58:49;;;;;;;26.27;16.75;;;3.90;99.90;;;;;;5011334;28;20459;-78
2023/11/18 01:01:17;;;;;;;29.92;18.02;;;3.90;99.90;;;;;;5011004;28;20050;-79
2023/11/18 01:03:44;;;;;;;27.25;16.17;;;3.90;99.90;;;;;;5012028;28;20042;-78
2023/11/18 01:06:09;;;;;;;21.33;15.25;;;3.90;99.90;;;;;;4994498;28;20382;-77
2023/11/18 01:08:35;;;;;;;27.02;16.73;;;3.90;99.90;;;;;;5010843;28;20116;-77
2023/11/18 01:11:00;;;;;;;27.40;17.10;;;3.90;99.90;;;;;;5011674;28;20072;-76
2023/11/18 01:13:26;;;;;;;24.70;16.17;;;3.80;99.90;;;;;;5010730;28;20042;-77
2023/11/18 01:15:52;;;;;;;30.92;16.77;;;3.90;99.90;;;;;;5010649;28;20597;-76
2023/11/18 01:18:17;;;;;;;27.38;17.27;;;3.90;99.90;;;;;;5010984;28;20042;-78
2023/11/18 01:20:43;;;;;;;30.23;17.75;;;3.80;99.90;;;;;;5011295;28;20065;-77
2023/11/18 01:23:09;;;;;;;35.97;17.85;;;3.80;99.90;;;;;;5015242;28;20116;-77
2023/11/18 01:25:34;;;;;;;27.63;17.70;;;3.80;99.90;;;;;;5014465;28;20077;-76
2023/11/18 01:28:00;;;;;;;28.67;15.88;;;3.90;99.90;;;;;;5014827;28;20116;-79
2023/11/18 01:30:26;;;;;;;28.67;17.15;;;3.90;99.90;;;;;;5014404;28;20092;-79
2023/11/18 01:32:52;;;;;;;27.63;15.88;;;3.80;99.90;;;;;;5014526;28;20049;-79
2023/11/18 01:35:19;;;;;;;33.63;18.65;;;3.80;99.90;;;;;;5014978;28;20038;-79
2023/11/18 01:37:45;;;;;;;30.95;17.52;;;3.80;99.90;;;;;;5015133;28;20049;-80
2023/11/18 01:40:15;;;;;;;27.90;16.58;;;3.80;99.90;;;;;;5015053;28;20041;-80
2023/11/18 01:42:47;;;;;;;29.48;15.93;;;3.80;99.90;;;;;;4998604;28;20564;-80
2023/11/18 01:45:14;;;;;;;30.15;16.90;;;3.80;99.90;;;;;;4998336;28;20038;-80
2023/11/18 01:47:41;;;;;;;30.92;17.80;;;3.90;99.90;;;;;;5014554;28;20053;-80
2023/11/18 01:50:10;;;;;;;29.55;17.27;;;3.80;99.90;;;;;;5014538;28;20041;-79
2023/11/18 01:52:36;;;;;;;29.77;16.15;;;3.80;99.90;;;;;;5014864;28;20486;-79
2023/11/18 01:55:06;;;;;;;29.63;16.80;;;3.80;99.90;;;;;;5014653;28;20073;-80
2023/11/18 01:57:36;;;;;;;34.50;17.98;;;3.80;99.90;;;;;;5014793;28;20081;-80
2023/11/18 02:00:06;;;;;;;35.10;17.88;;;3.70;99.90;;;;;;4997988;28;20516;-80
2023/11/18 02:02:32;;;;;;;33.83;16.80;;;3.80;99.90;;;;;;5013924;28;20034;-80
2023/11/18 02:05:01;;;;;;;29.60;17.17;;;3.70;99.90;;;;;;5013889;28;20501;-81
2023/11/18 02:07:30;;;;;;;31.15;16.90;;;3.80;99.90;;;;;;5014087;28;20046;-80
2023/11/18 02:09:55;;;;;;;33.03;17.02;;;3.70;99.90;;;;;;5014284;28;20442;-80
2023/11/18 02:12:50;;;;;;;30.13;17.42;;;3.80;99.90;;;;;;5015488;28;20113;-81
2023/11/18 02:15:17;;;;;;;31.20;18.00;;;3.70;99.90;;;;;;5015764;28;20050;-80
2023/11/18 02:17:44;;;;;;;32.38;18.13;;;3.80;99.90;;;;;;5015325;28;20509;-79
2023/11/18 02:20:15;;;;;;;28.98;17.23;;;3.70;99.90;;;;;;5014962;28;20053;-79
2023/11/18 02:22:46;;;;;;;29.25;18.13;;;3.70;99.90;;;;;;5013761;28;20467;-79
2023/11/18 02:25:17;;;;;;;25.02;15.73;;;3.70;99.90;;;;;;5013353;28;20424;-80
2023/11/18 02:27:43;;;;;;;30.20;16.05;;;3.60;99.90;;;;;;4997784;28;20404;-79
2023/11/18 02:30:13;;;;;;;34.33;16.55;;;3.60;99.90;;;;;;5014853;28;20037;-80
2023/11/18 02:32:49;;;;;;;24.38;15.00;;;3.50;99.90;;;;;;5014171;28;20049;-79
2023/11/18 02:35:22;;;;;;;26.17;14.15;;;3.50;99.90;;;;;;5014574;28;20048;-80
2023/11/18 02:37:51;;;;;;;22.15;13.40;;;3.50;99.90;;;;;;5014013;28;20046;-80
2023/11/18 02:40:20;;;;;;;20.02;12.68;;;3.40;99.90;;;;;;5013636;28;20046;-80
2023/11/18 02:42:52;;;;;;;21.75;13.45;;;3.50;99.90;;;;;;5013338;28;20132;-80
2023/11/18 02:45:19;;;;;;;20.27;12.23;;;3.40;99.90;;;;;;5013382;28;20045;-80
2023/11/18 02:47:45;;;;;;;20.85;13.77;;;3.30;99.90;;;;;;5013608;28;20049;-81
2023/11/18 02:50:10;;;;;;;20.27;13.50;;;3.40;99.90;;;;;;5013997;28;20049;-80
2023/11/18 02:52:40;;;;;;;21.98;13.63;;;3.40;99.90;;;;;;5013548;28;20501;-80
2023/11/18 02:55:07;;;;;;;23.48;13.88;;;3.40;99.90;;;;;;5013423;28;20424;-80
2023/11/18 02:57:33;;;;;;;19.80;11.85;;;3.30;99.90;;;;;;4996837;28;20053;-80
2023/11/18 03:00:00;;;;;;;19.98;11.82;;;3.30;99.90;;;;;;5013356;28;20046;-80
2023/11/18 03:02:30;;;;;;;31.60;14.00;;;3.30;99.90;;;;;;5012624;28;20056;-80
2023/11/18 03:04:59;;;;;;;21.90;12.38;;;3.10;99.90;;;;;;5012802;28;20046;-80
2023/11/18 03:07:26;;;;;;;22.45;12.70;;;3.20;99.90;;;;;;5013380;28;20121;-80
2023/11/18 03:09:59;;;;;;;15.73;11.52;;;3.20;99.90;;;;;;5013084;28;20038;-80
2023/11/18 03:12:28;;;;;;;22.60;13.10;;;3.10;99.90;;;;;;5008001;28;20113;-80
2023/11/18 03:14:54;;;;;;;20.48;13.13;;;3.00;99.90;;;;;;5006110;28;20081;-80
2023/11/18 03:17:20;;;;;;;20.27;11.82;;;3.20;99.90;;;;;;5011406;28;20077;-80
2023/11/18 03:19:45;;;;;;;25.30;12.93;;;3.00;99.90;;;;;;5012612;28;20053;-80
2023/11/18 03:22:13;;;;;;;22.13;12.85;;;3.20;99.90;;;;;;5012856;28;20050;-80
2023/11/18 03:24:39;;;;;;;22.50;12.80;;;3.10;99.90;;;;;;5012864;28;20038;-80
2023/11/18 03:27:04;;;;;;;19.35;12.57;;;3.10;99.90;;;;;;5004913;28;20038;-80
2023/11/18 03:29:30;;;;;;;25.10;13.05;;;3.10;99.90;;;;;;5012194;28;20073;-80
2023/11/18 03:31:55;;;;;;;23.70;14.23;;;3.00;99.90;;;;;;5014068;28;20099;-80
2023/11/18 03:34:21;;;;;;;23.00;13.10;;;3.10;99.90;;;;;;5012613;28;20068;-80
2023/11/18 03:36:47;;;;;;;27.00;14.25;;;3.00;99.90;;;;;;5012519;28;20050;-80
2023/11/18 03:39:13;;;;;;;25.63;14.02;;;3.00;99.90;;;;;;5012898;28;20046;-80
2023/11/18 03:41:39;;;;;;;33.35;14.98;;;3.10;99.90;;;;;;5012326;28;20049;-79
2023/11/18 03:44:05;;;;;;;56.17;16.13;;;3.20;99.90;;;;;;5012248;28;20042;-81
2023/11/18 03:46:34;;;;;;;24.90;15.00;;;3.10;99.90;;;;;;5012283;28;20044;-81
2023/11/18 03:49:00;;;;;;;49.15;16.23;;;3.10;99.90;;;;;;5008779;28;20524;-80
2023/11/18 03:51:26;;;;;;;24.60;14.32;;;3.10;99.90;;;;;;5007595;28;20461;-80
2023/11/18 03:53:52;;;;;;;24.70;14.98;;;3.20;99.90;;;;;;5003874;28;20049;-80
2023/11/18 03:56:20;;;;;;;37.80;17.67;;;3.20;99.90;;;;;;5012217;28;20042;-80
2023/11/18 03:58:49;;;;;;;38.47;15.30;;;3.20;99.90;;;;;;5012228;28;20041;-80
2023/11/18 04:01:22;;;;;;;31.60;15.38;;;3.00;99.90;;;;;;5003532;28;20041;-80
2023/11/18 04:03:49;;;;;;;29.67;14.80;;;3.30;99.90;;;;;;5012234;28;20038;-80
2023/11/18 04:06:15;;;;;;;34.55;14.18;;;3.10;99.90;;;;;;5011884;28;20497;-80
2023/11/18 04:08:51;;;;;;;30.02;15.85;;;3.20;99.90;;;;;;5012294;28;20046;-80
2023/11/18 04:11:17;;;;;;;29.48;14.57;;;3.30;99.90;;;;;;5011755;28;20048;-80
2023/11/18 04:13:43;;;;;;;24.65;15.05;;;3.10;99.90;;;;;;4995753;28;20088;-80
2023/11/18 04:16:13;;;;;;;30.48;14.52;;;3.10;99.90;;;;;;5011765;28;20392;-80
2023/11/18 04:18:40;;;;;;;46.03;17.40;;;3.00;99.90;;;;;;5012131;28;20046;-80
2023/11/18 04:21:08;;;;;;;39.75;16.20;;;3.00;99.90;;;;;;5011755;28;20400;-80
2023/11/18 04:23:37;;;;;;;24.63;15.07;;;3.20;99.90;;;;;;5011707;28;20113;-80
2023/11/18 04:26:07;;;;;;;44.20;16.92;;;3.10;99.90;;;;;;5011406;28;20034;-80
2023/11/18 04:28:33;;;;;;;29.05;15.02;;;3.00;99.90;;;;;;5011730;28;20091;-80
2023/11/18 04:30:59;;;;;;;40.65;17.42;;;3.10;99.90;;;;;;5011525;28;20042;-80
2023/11/18 04:33:25;;;;;;;40.80;16.25;;;3.20;99.90;;;;;;5011759;28;20049;-80
2023/11/18 04:35:51;;;;;;;45.00;17.40;;;3.10;99.90;;;;;;5011498;28;20046;-80
2023/11/18 04:38:18;;;;;;;32.08;17.52;;;3.10;99.90;;;;;;4995359;28;20040;-80
2023/11/18 04:40:45;;;;;;;27.00;15.80;;;3.20;99.90;;;;;;5011570;28;20529;-80
2023/11/18 04:43:11;;;;;;;39.28;17.13;;;3.20;99.90;;;;;;5011424;28;20121;-80
2023/11/18 04:45:37;;;;;;;27.08;16.60;;;3.20;99.90;;;;;;5011214;28;20052;-80
2023/11/18 04:48:04;;;;;;;28.38;16.35;;;3.20;99.90;;;;;;4995344;28;20049;-80
2023/11/18 04:50:30;;;;;;;50.80;17.13;;;3.30;99.90;;;;;;5011225;28;20046;-81
2023/11/18 04:52:56;;;;;;;39.85;17.65;;;3.30;99.90;;;;;;5010863;28;20042;-80
2023/11/18 04:55:22;;;;;;;40.17;19.42;;;3.30;99.90;;;;;;5010549;28;20435;-80
2023/11/18 04:57:47;;;;;;;58.95;20.58;;;3.30;99.90;;;;;;5011092;28;20038;-80
2023/11/18 05:00:16;;;;;;;42.38;18.58;;;3.20;99.90;;;;;;5011327;28;20042;-80
2023/11/18 05:02:42;;;;;;;53.42;18.58;;;3.30;99.90;;;;;;5011409;28;20124;-81
2023/11/18 05:05:09;;;;;;;47.83;20.17;;;3.20;99.90;;;;;;5011463;28;20532;-81
2023/11/18 05:07:35;;;;;;;40.80;19.45;;;3.20;99.90;;;;;;5011037;28;20045;-80
2023/11/18 05:10:01;;;;;;;32.42;18.25;;;3.20;99.90;;;;;;4994774;28;20045;-81
2023/11/18 05:12:29;;;;;;;33.90;18.02;;;3.40;99.90;;;;;;5010933;28;20048;-80
2023/11/18 05:14:56;;;;;;;42.33;18.92;;;3.40;99.90;;;;;;5010690;28;20045;-80
2023/11/18 05:17:26;;;;;;;57.17;20.33;;;3.30;99.90;;;;;;5011155;28;20091;-79
2023/11/18 05:19:52;;;;;;;50.08;21.67;;;3.20;99.90;;;;;;5010871;28;20052;-79
2023/11/18 05:22:17;;;;;;;40.10;19.80;;;3.30;99.90;;;;;;5010827;28;20057;-80
2023/11/18 05:24:44;;;;;;;59.63;21.35;;;3.20;99.90;;;;;;5011066;28;20046;-80
2023/11/18 05:27:09;;;;;;;40.25;21.10;;;3.30;99.90;;;;;;5011049;28;20076;-81
2023/11/18 05:29:35;;;;;;;53.30;21.80;;;3.40;99.90;;;;;;5010665;28;20066;-80
2023/11/18 05:32:00;;;;;;;60.00;21.35;;;3.40;99.90;;;;;;5010828;28;20073;-81
2023/11/18 05:34:26;;;;;;;55.05;21.52;;;3.30;99.90;;;;;;5010956;28;20041;-80
2023/11/18 05:36:54;;;;;;;44.85;22.13;;;3.60;99.90;;;;;;5010703;28;20125;-80
2023/11/18 05:39:21;;;;;;;38.92;20.67;;;3.60;99.90;;;;;;5010632;28;20045;-80
2023/11/18 05:41:49;;;;;;;62.33;23.17;;;3.50;99.90;;;;;;5010753;28;20045;-80
2023/11/18 05:44:19;;;;;;;77.35;24.63;;;3.50;99.90;;;;;;5010721;28;20531;-80
2023/11/18 05:46:48;;;;;;;47.10;22.45;;;3.50;99.90;;;;;;5010292;28;20077;-81
2023/11/18 05:49:13;;;;;;;44.28;22.02;;;3.50;99.90;;;;;;5010595;28;20084;-80
2023/11/18 05:51:43;;;;;;;99.93;27.17;;;3.50;99.90;;;;;;5010787;28;20408;-80
2023/11/18 05:54:10;;;;;;;46.55;23.92;;;3.50;99.90;;;;;;5010688;28;20485;-80
2023/11/18 05:56:36;;;;;;;49.17;24.05;;;3.70;99.90;;;;;;5010508;28;20042;-80
2023/11/18 05:59:03;;;;;;;49.28;24.23;;;3.60;99.90;;;;;;5010428;28;20037;-80
2023/11/18 06:01:29;;;;;;;61.97;24.48;;;3.80;99.90;;;;;;5010839;28;20048;-80
2023/11/18 06:03:56;;;;;;;73.47;27.20;;;3.80;99.90;;;;;;5010845;28;20038;-80
2023/11/18 06:06:22;;;;;;;55.65;25.15;;;3.90;99.90;;;;;;4994032;28;20049;-80
2023/11/18 06:08:48;;;;;;;60.10;27.65;;;3.90;99.90;;;;;;5014306;28;20037;-80
2023/11/18 06:11:15;;;;;;;63.78;27.15;;;3.70;99.90;;;;;;5014788;28;20046;-80
2023/11/18 06:13:59;;;;;;;67.40;26.73;;;3.90;99.90;;;;;;5014335;28;20045;-80
2023/11/18 06:16:25;;;;;;;;;;;3.80;99.90;;;;;;5014484;28;20126;-80
2023/11/18 06:18:56;;;;;;;82.78;28.00;;;4.00;99.90;;;;;;5014671;28;19928;-80
2023/11/18 06:21:30;;;;;;;98.55;29.35;;;3.90;99.90;;;;;;5013570;28;20049;-80
2023/11/18 06:23:56;;;;;;;84.25;30.15;;;3.90;99.90;;;;;;5014361;28;20456;-80
2023/11/18 06:26:22;;;;;;;154.13;35.95;;;4.00;99.90;;;;;;5013957;28;20045;-80
2023/11/18 06:28:51;;;;;;;91.65;29.55;;;4.00;99.90;;;;;;5014053;28;20038;-81
2023/11/18 06:31:17;;;;;;;110.10;31.58;;;4.10;99.90;;;;;;5014484;28;20124;-80
2023/11/18 06:33:47;;;;;;;191.23;39.55;;;3.80;99.90;;;;;;5014120;28;20132;-80
2023/11/18 06:36:21;;;;;;;160.50;40.05;;;4.00;99.90;;;;;;5013604;28;20050;-80
2023/11/18 06:38:52;;;;;;;81.40;28.10;;;3.90;99.90;;;;;;5013983;28;20050;-80
2023/11/18 06:41:19;;;;;;;83.68;31.15;;;3.90;99.90;;;;;;5014289;28;20054;-81
2023/11/18 06:43:51;;;;;;;69.30;27.95;;;4.00;99.90;;;;;;5014306;28;20030;-79
2023/11/18 06:46:20;;;;;;;66.90;27.88;;;4.00;99.90;;;;;;5013669;28;20034;-80
2023/11/18 06:48:49;;;;;;;63.20;28.70;;;4.00;99.90;;;;;;5013929;28;20033;-80
2023/11/18 06:51:15;;;;;;;68.50;29.42;;;4.00;99.90;;;;;;5013922;28;20048;-80
2023/11/18 06:53:43;;;;;;;128.20;35.70;;;4.20;99.90;;;;;;5013986;28;20052;-81
2023/11/18 06:56:09;;;;;;;62.70;28.90;;;3.90;99.90;;;;;;5013674;28;20084;-80
2023/11/18 06:58:38;;;;;;;92.40;30.98;;;4.20;99.90;;;;;;5013775;28;20073;-80
2023/11/18 07:01:05;;;;;;;99.28;31.83;;;4.20;99.90;;;;;;5013435;28;20100;-80
2023/11/18 07:03:31;;;;;;;72.82;29.48;;;3.90;99.90;;;;;;4997721;28;20037;-80
2023/11/18 07:05:57;;;;;;;89.18;31.40;;;4.00;99.90;;;;;;5013318;28;20064;-80
2023/11/18 07:08:24;;;;;;;61.78;27.70;;;4.00;99.90;;;;;;5014093;28;20038;-80
2023/11/18 07:10:50;;;;;;;73.18;29.70;;;4.00;99.90;;;;;;5013853;28;20049;-80
2023/11/18 07:13:16;;;;;;;80.75;31.13;;;4.10;99.90;;;;;;5014166;28;20117;-80
2023/11/18 07:15:42;;;;;;;87.88;32.15;;;4.20;99.90;;;;;;4996664;28;20537;-80
2023/11/18 07:18:08;;;;;;;73.30;30.10;;;4.00;99.90;;;;;;5013085;28;20046;-81
2023/11/18 07:20:34;;;;;;;119.43;33.97;;;4.10;99.90;;;;;;5012741;28;20050;-80
2023/11/18 07:23:00;;;;;;;112.65;34.95;;;4.10;99.90;;;;;;5012603;28;20045;-81
2023/11/18 07:25:26;;;;;;;96.13;33.22;;;4.10;99.90;;;;;;4996193;28;20409;-80
2023/11/18 07:27:51;;;;;;;104.85;34.72;;;4.20;99.90;;;;;;5012594;28;20042;-80
2023/11/18 07:30:18;;;;;;;96.07;33.63;;;4.20;99.90;;;;;;5012861;28;20406;-80
2023/11/18 07:32:44;;;;;;;136.40;38.97;;;4.40;99.90;;;;;;5012707;28;20565;-80
2023/11/18 07:35:09;;;;;;;95.07;34.80;;;4.20;99.90;;;;;;5013013;28;20077;-80
2023/11/18 07:37:36;;;;;;;83.05;32.30;;;4.30;99.90;;;;;;4996802;28;20049;-80
2023/11/18 07:40:06;;;;;;;100.45;34.28;;;4.20;99.90;;;;;;5012723;28;20113;-81
2023/11/18 07:42:35;;;;;;;108.47;35.60;;;4.40;99.90;;;;;;5012581;28;20045;-80
2023/11/18 07:45:04;;;;;;;109.93;35.22;;;4.30;99.90;;;;;;5012420;28;20046;-80
2023/11/18 07:47:31;;;;;;;114.80;37.60;;;4.30;99.90;;;;;;5013335;28;20037;-80
2023/11/18 07:49:59;;;;;;;119.72;35.45;;;4.40;99.90;;;;;;4996511;28;20049;-76
2023/11/18 07:52:28;;;;;;;102.40;33.97;;;4.30;99.90;;;;;;5014932;28;20041;-79
2023/11/18 07:54:54;;;;;;;88.47;33.63;;;4.30;99.90;;;;;;4993313;28;20049;-81
2023/11/18 07:57:20;;;;;;;136.75;36.80;;;4.50;99.90;;;;;;5011589;28;20045;-81
2023/11/18 07:59:46;;;;;;;155.15;40.38;;;4.30;99.90;;;;;;4994363;28;20061;-82
2023/11/18 08:02:14;;;;;;;113.70;35.55;;;4.50;99.90;;;;;;4996962;28;20089;-81
2023/11/18 08:04:40;;;;;;;105.00;36.05;;;4.30;99.90;;;;;;4993841;28;20042;-81
2023/11/18 08:07:07;;;;;;;184.18;47.38;;;4.50;99.90;;;;;;4993430;28;20038;-81
2023/11/18 08:09:33;;;;;;;119.65;37.00;;;4.40;99.90;;;;;;4994222;28;20049;-84
2023/11/18 08:11:58;;;;;;;118.43;37.00;;;4.50;99.90;;;;;;4995359;28;20042;-80
2023/11/18 08:14:24;;;;;;;114.55;37.00;;;4.70;99.90;;;;;;4995260;28;20057;-80
2023/11/18 08:16:51;;;;;;;114.65;37.47;;;4.60;99.90;;;;;;4993141;28;20046;-80
2023/11/18 08:19:17;;;;;;;144.73;39.83;;;4.70;99.90;;;;;;4958280;28;1016668;-81
2023/11/18 08:21:43;;;;;;;108.13;38.20;;;4.70;99.90;;;;;;4995849;28;20050;-79
2023/11/18 08:24:08;;;;;;;150.75;43.25;;;4.70;99.90;;;;;;4997275;28;20053;-80
2023/11/18 08:26:35;;;;;;;115.78;39.50;;;4.70;99.90;;;;;;4993719;28;20030;-79
2023/11/18 08:29:01;;;;;;;144.80;44.72;;;4.60;99.90;;;;;;4995250;28;20058;-81
2023/11/18 08:31:27;;;;;;;114.78;38.42;;;4.80;99.90;;;;;;4993814;28;20160;-80
2023/11/18 08:33:54;;;;;;;131.13;40.25;;;4.70;99.90;;;;;;4993594;28;20473;-80
2023/11/18 08:36:20;;;;;;;145.05;41.50;;;4.70;99.90;;;;;;4993894;28;20046;-80
2023/11/18 08:38:47;;;;;;;111.22;38.35;;;4.70;99.90;;;;;;4994133;28;20046;-81
2023/11/18 08:41:12;;;;;;;123.97;41.90;;;4.60;99.90;;;;;;4993221;28;20092;-80
2023/11/18 08:43:40;;;;;;;124.93;41.85;;;4.70;99.90;;;;;;4977663;28;20129;-80
2023/11/18 08:46:07;;;;;;;140.00;41.10;;;4.70;99.90;;;;;;4997364;28;20085;-80
2023/11/18 08:48:33;;;;;;;126.25;40.95;;;4.60;99.90;;;;;;5003488;28;20060;-80
2023/11/18 08:51:01;;;;;;;158.70;43.22;;;4.80;99.90;;;;;;5007822;28;20052;-80
2023/11/18 08:53:27;;;;;;;131.38;41.63;;;4.80;99.90;;;;;;5014338;28;20121;-80
2023/11/18 08:55:56;;;;;;;148.73;42.95;;;4.70;99.90;;;;;;5016582;28;20037;-80
2023/11/18 08:58:22;;;;;;;122.03;39.47;;;4.90;99.90;;;;;;5015043;28;20544;-81
2023/11/18 09:00:50;;;;;;;107.28;35.63;;;4.60;99.90;;;;;;5010939;28;20041;-80
2023/11/18 09:03:17;;;;;;;99.32;34.78;;;4.70;99.90;;;;;;5006116;28;20529;-79
2023/11/18 09:05:58;;;;;;;99.57;35.10;;;4.60;99.90;;;;;;5011632;28;20416;-79
2023/11/18 09:08:32;;;;;;;111.25;36.28;;;4.80;99.90;;;;;;5004706;28;20042;-78
2023/11/18 09:10:58;;;;;;;126.38;40.15;;;4.70;99.90;;;;;;5011388;28;20560;-78
2023/11/18 09:13:28;;;;;;;107.45;37.65;;;4.80;99.90;;;;;;5010702;28;20497;-80
2023/11/18 09:15:56;;;;;;;116.32;38.47;;;4.80;99.90;;;;;;5012938;28;20573;-77
2023/11/18 09:18:22;;;;;;;109.65;35.95;;;4.80;99.90;;;;;;5013974;28;20046;-79
2023/11/18 09:20:47;;;;;;;104.88;37.70;;;4.80;99.90;;;;;;5017080;28;20458;-79
2023/11/18 09:23:15;;;;;;;91.45;36.28;;;4.80;99.90;;;;;;5000920;28;20045;-79
2023/11/18 09:25:42;;;;;;;110.30;35.45;;;4.60;99.90;;;;;;5000202;28;20053;-79
2023/11/18 09:28:10;;;;;;;94.80;36.70;;;4.80;99.90;;;;;;5030557;28;20089;-83
2023/11/18 09:30:38;;;;;;;98.47;35.65;;;4.80;99.90;;;;;;5028325;28;20057;-82
2023/11/18 09:33:13;;;;;;;102.68;37.72;;;4.90;99.90;;;;;;5027894;28;20038;-82
2023/11/18 09:35:40;;;;;;;101.07;37.85;;;4.80;99.90;;;;;;5026020;28;20145;-82
2023/11/18 09:38:06;;;;;;;108.68;40.03;;;4.80;99.90;;;;;;5025598;28;20053;-82
2023/11/18 09:40:37;;;;;;;106.50;38.47;;;5.00;99.90;;;;;;5008383;28;20054;-82
2023/11/18 09:43:09;;;;;;;97.40;36.20;;;4.80;99.90;;;;;;5026660;28;20034;-82
2023/11/18 09:45:35;;;;;;;103.15;37.45;;;4.90;99.90;;;;;;5028148;28;20429;-82
2023/11/18 09:48:06;;;;;;;94.35;35.20;;;4.90;99.90;;;;;;5024781;28;20406;-80
2023/11/18 09:50:37;;;;;;;99.53;38.45;;;4.90;99.90;;;;;;5023595;28;20041;-78
2023/11/18 09:53:11;;;;;;;98.95;37.22;;;4.90;99.90;;;;;;5004802;28;20513;-80
2023/11/18 09:55:49;;;;;;;95.45;37.35;;;5.10;99.90;;;;;;5022369;28;20046;-79
2023/11/18 09:58:18;;;;;;;99.32;35.85;;;5.00;99.90;;;;;;5016661;28;20077;-75
2023/11/18 10:00:50;;;;;;;95.78;38.58;;;5.10;99.90;;;;;;4997231;28;20060;-75
2023/11/18 10:03:16;;;;;;;89.82;36.80;;;5.00;99.90;;;;;;5014928;28;20046;-76
2023/11/18 10:05:42;;;;;;;84.18;37.60;;;5.10;99.90;;;;;;5014993;28;20571;-78
2023/11/18 10:08:08;;;;;;;93.82;36.85;;;5.10;99.90;;;;;;5014038;28;20063;-77
2023/11/18 10:10:37;;;;;;;87.88;35.70;;;5.00;99.90;;;;;;5013729;28;20087;-78
2023/11/18 10:13:08;;;;;;;87.65;38.40;;;5.20;99.90;;;;;;5015307;28;20038;-77
2023/11/18 10:15:35;;;;;;;85.57;36.45;;;5.20;99.90;;;;;;5014900;28;20409;-77
2023/11/18 10:18:09;;;;;;;99.20;38.95;;;5.00;99.90;;;;;;5014944;28;20050;-77
2023/11/18 10:20:44;;;;;;;88.60;36.88;;;5.20;99.90;;;;;;5013837;28;20038;-77
2023/11/18 10:23:11;;;;;;;88.82;35.78;;;5.20;99.90;;;;;;5013678;28;20046;-77
2023/11/18 10:25:42;;;;;;;90.22;39.55;;;5.00;99.90;;;;;;5014772;28;20046;-77
2023/11/18 10:28:10;;;;;;;83.50;37.67;;;5.10;99.90;;;;;;5013581;28;20501;-77
2023/11/18 10:30:48;;;;;;;89.88;35.90;;;5.10;99.90;;;;;;5014983;28;20096;-77
2023/11/18 10:33:18;;;;;;;84.50;36.38;;;5.10;99.90;;;;;;5013505;28;20515;-77
2023/11/18 10:35:55;;;;;;;88.78;38.05;;;5.10;99.90;;;;;;5013155;28;20536;-77
2023/11/18 10:38:25;;;;;;;90.72;36.22;;;5.10;99.90;;;;;;5013493;28;20053;-77
2023/11/18 10:40:55;;;;;;;75.60;35.83;;;5.20;99.90;;;;;;5013280;28;20045;-77
2023/11/18 10:43:24;;;;;;;77.45;35.45;;;5.30;99.90;;;;;;4997059;28;20403;-75
2023/11/18 10:46:03;;;;;;;81.97;33.72;;;5.20;99.90;;;;;;5012936;28;20083;-74
2023/11/18 10:48:29;;;;;;;74.57;32.20;;;5.30;99.90;;;;;;5011559;28;20073;-74
2023/11/18 10:50:57;;;;;;;73.78;33.78;;;5.30;99.90;;;;;;5013090;28;20095;-71
2023/11/18 10:53:26;;;;;;;80.05;34.70;;;5.50;99.90;;;;;;5011010;28;20042;-72
2023/11/18 10:55:52;;;;;;;76.00;33.70;;;5.50;99.90;;;;;;5012719;28;20120;-71
2023/11/18 10:58:19;;;;;;;75.97;33.28;;;5.60;99.90;;;;;;5006031;28;20531;-71
2023/11/18 11:00:55;;;;;;;70.10;34.00;;;5.60;99.90;;;;;;5002101;28;20461;-71
2023/11/18 11:03:23;;;;;;;68.05;32.42;;;5.70;99.90;;;;;;5001793;28;20051;-71
2023/11/18 11:05:50;;;;;;;68.38;31.95;;;5.70;99.90;;;;;;5005497;28;20038;-72
2023/11/18 11:08:18;;;;;;;65.72;31.73;;;5.80;99.90;;;;;;5012333;28;20034;-71
2023/11/18 11:10:44;;;;;;;63.78;30.10;;;5.90;99.90;;;;;;5001099;28;20557;-72
2023/11/18 11:13:11;;;;;;;65.45;28.38;;;5.90;99.90;;;;;;4993908;28;20128;-72
2023/11/18 11:15:44;;;;;;;63.97;30.17;;;5.80;99.90;;;;;;4993044;28;20520;-71
2023/11/18 11:18:15;;;;;;;53.80;29.40;;;5.90;99.90;;;;;;4993420;28;20042;-71
2023/11/18 11:20:56;;;;;;;59.35;28.73;;;6.00;99.90;;;;;;4997150;28;20039;-71
2023/11/18 11:23:32;;;;;;;50.03;25.77;;;5.90;99.90;;;;;;5005793;28;20046;-71
2023/11/18 11:26:14;;;;;;;63.08;27.05;;;6.00;99.90;;;;;;5012520;28;20048;-71
2023/11/18 11:28:55;;;;;;;54.58;24.60;;;5.90;99.90;;;;;;5014080;28;20038;-71
2023/11/18 11:31:32;;;;;;;50.35;26.50;;;5.90;99.90;;;;;;5014003;28;20524;-74
2023/11/18 11:34:02;;;;;;;50.35;24.25;;;5.90;99.90;;;;;;5006304;28;20164;-74
2023/11/18 11:36:41;;;;;;;52.65;25.98;;;6.00;99.90;;;;;;5004825;28;20034;-74
2023/11/18 11:39:14;;;;;;;50.92;24.00;;;6.00;99.90;;;;;;5003275;28;20046;-74
2023/11/18 11:41:50;;;;;;;;;;;6.00;99.90;;;;;;4990458;28;20046;-74
2023/11/18 11:44:19;;;;;;;43.83;22.40;;;6.00;99.90;;;;;;5001707;28;19924;-74
2023/11/18 11:46:52;;;;;;;37.25;20.25;;;6.00;99.90;;;;;;5003847;28;20113;-74
2023/11/18 11:49:27;;;;;;;40.95;22.05;;;6.10;99.90;;;;;;5001629;28;20652;-74
2023/11/18 11:52:15;;;;;;;44.10;20.92;;;6.10;99.90;;;;;;5006318;28;20386;-75
2023/11/18 11:55:44;;;;;;;38.50;21.15;;;6.10;99.90;;;;;;5013161;28;20048;-74
2023/11/18 11:58:27;;;;;;;43.58;21.02;;;6.10;99.90;;;;;;4967451;28;20153;-74
2023/11/18 12:00:54;;;;;;;35.90;19.63;;;6.10;99.90;;;;;;5011858;28;20042;-74
2023/11/18 12:03:22;;;;;;;36.83;19.30;;;6.00;99.90;;;;;;5011363;28;20042;-73
2023/11/18 12:05:51;;;;;;;42.72;21.15;;;6.10;99.90;;;;;;4979929;28;20399;-74
2023/11/18 12:08:18;;;;;;;34.60;20.38;;;6.10;99.90;;;;;;4996532;28;20113;-74
2023/11/18 12:10:56;;;;;;;37.70;18.77;;;6.20;99.90;;;;;;5008646;28;20037;-74
2023/11/18 12:13:21;;;;;;;38.78;18.38;;;6.30;99.90;;;;;;4992338;28;20050;-73
2023/11/18 12:16:05;;;;;;;43.33;19.05;;;6.20;99.90;;;;;;4988262;28;20044;-74
2023/11/18 12:18:36;;;;;;;34.97;18.25;;;6.20;99.90;;;;;;5000842;28;20536;-73
2023/11/18 12:21:03;;;;;;;30.30;17.17;;;6.30;99.90;;;;;;4987799;28;20043;-73
2023/11/18 12:23:30;;;;;;;34.30;18.10;;;6.20;99.90;;;;;;4999780;28;20038;-73
2023/11/18 12:25:57;;;;;;;37.50;19.02;;;6.10;99.90;;;;;;4991923;28;20047;-75
2023/11/18 12:28:35;;;;;;;31.73;17.73;;;6.00;99.90;;;;;;4975542;28;20042;-75
2023/11/18 12:31:16;;;;;;;33.20;18.25;;;6.10;99.90;;;;;;5001538;28;20509;-75
2023/11/18 12:34:00;;;;;;;32.53;16.73;;;6.00;99.90;;;;;;4994997;28;20125;-75
2023/11/18 12:36:39;;;;;;;;;;;6.10;99.90;;;;;;5011749;28;20046;-75
2023/11/18 12:39:40;;;;;;;32.83;17.08;;;6.10;99.90;;;;;;5011220;28;19988;-75
2023/11/18 12:42:17;;;;;;;29.27;16.60;;;6.00;99.90;;;;;;4994940;28;20095;-75